createdAt,value
2023-02-26T00:01:49.227Z,-2.90
2023-02-26T00:04:17.893Z,-2.70
2023-02-26T00:06:48.022Z,-2.50
2023-02-26T00:09:16.721Z,-2.70
2023-02-26T00:11:46.679Z,-2.70
2023-02-26T00:14:17.138Z,-2.80
2023-02-26T00:16:48.760Z,-2.90
2023-02-26T00:19:17.450Z,-2.70
2023-02-26T00:21:46.683Z,-2.70
2023-02-26T00:24:15.213Z,-2.70
2023-02-26T00:26:43.732Z,-2.60
2023-02-26T00:29:15.509Z,-2.50
2023-02-26T00:31:44.536Z,-2.60
2023-02-26T00:34:14.828Z,-2.50
2023-02-26T00:36:55.415Z,-2.60
2023-02-26T00:39:36.147Z,-2.60
2023-02-26T00:42:04.824Z,-2.50
2023-02-26T00:44:33.746Z,-2.70
2023-02-26T00:47:20.321Z,-2.80
2023-02-26T00:50:06.752Z,-2.90
2023-02-26T00:52:41.169Z,-3.00
2023-02-26T00:55:09.681Z,-3.00
2023-02-26T00:57:38.220Z,-2.90
2023-02-26T01:00:08.922Z,-2.90
2023-02-26T01:02:38.630Z,-3.00
2023-02-26T01:05:07.788Z,-2.90
2023-02-26T01:08:01.822Z,-2.70
2023-02-26T01:10:30.822Z,-2.80
2023-02-26T01:12:59.597Z,-2.80
2023-02-26T01:15:29.564Z,-3.00
2023-02-26T01:18:06.843Z,-3.20
2023-02-26T01:20:47.611Z,-3.20
2023-02-26T01:23:19.445Z,-3.10
2023-02-26T01:25:51.184Z,-3.00
2023-02-26T01:28:19.886Z,-2.80
2023-02-26T01:30:49.037Z,-2.80
2023-02-26T01:33:38.078Z,-2.90
2023-02-26T01:36:09.070Z,-2.90
2023-02-26T01:38:46.755Z,-2.80
2023-02-26T01:41:30.197Z,-2.80
2023-02-26T01:44:07.641Z,-2.70
2023-02-26T01:46:54.623Z,-2.60
2023-02-26T01:49:23.460Z,-2.70
2023-02-26T01:52:00.535Z,-2.60
2023-02-26T01:54:35.056Z,-2.70
2023-02-26T01:57:12.712Z,-2.70
2023-02-26T01:59:44.301Z,-2.70
2023-02-26T02:02:16.274Z,-2.90
2023-02-26T02:04:46.884Z,-3.00
2023-02-26T02:07:16.127Z,-3.00
2023-02-26T02:09:44.948Z,-3.10
2023-02-26T02:12:31.514Z,-3.10
2023-02-26T02:15:35.230Z,-3.00
2023-02-26T02:18:24.948Z,-3.00
2023-02-26T02:21:20.012Z,-3.00
2023-02-26T02:24:12.396Z,-2.80
2023-02-26T02:26:46.525Z,-2.50
2023-02-26T02:29:18.126Z,-2.30
2023-02-26T02:32:09.979Z,-2.60
2023-02-26T02:34:50.426Z,-2.60
2023-02-26T02:37:30.682Z,-2.70
2023-02-26T02:40:02.188Z,-2.70
2023-02-26T02:42:48.704Z,-2.70
2023-02-26T02:45:22.949Z,-2.60
2023-02-26T02:47:54.554Z,-2.60
2023-02-26T02:50:35.061Z,-2.60
2023-02-26T02:53:06.630Z,-2.80
